sensor_id;sensor_type;location;lat;lon;timestamp;P1;durP1;ratioP1;P2;durP2;ratioP2
54883;SDS011;40776;52.880;6.016;2024-03-07T00:02:17;11.27;;;8.27;;
54883;SDS011;40776;52.880;6.016;2024-03-07T00:04:43;11.90;;;7.85;;
54883;SDS011;40776;52.880;6.016;2024-03-07T00:07:09;11.82;;;8.20;;
54883;SDS011;40776;52.880;6.016;2024-03-07T00:09:35;13.50;;;8.38;;
54883;SDS011;40776;52.880;6.016;2024-03-07T00:12:02;12.90;;;9.10;;
54883;SDS011;40776;52.880;6.016;2024-03-07T00:14:28;14.40;;;9.27;;
54883;SDS011;40776;52.880;6.016;2024-03-07T00:16:57;12.70;;;8.10;;
54883;SDS011;40776;52.880;6.016;2024-03-07T00:19:27;11.90;;;8.00;;
54883;SDS011;40776;52.880;6.016;2024-03-07T00:21:54;12.43;;;8.23;;
54883;SDS011;40776;52.880;6.016;2024-03-07T00:24:21;12.88;;;8.45;;
54883;SDS011;40776;52.880;6.016;2024-03-07T00:26:47;12.45;;;8.57;;
54883;SDS011;40776;52.880;6.016;2024-03-07T00:29:15;12.23;;;8.73;;
54883;SDS011;40776;52.880;6.016;2024-03-07T00:31:43;13.48;;;8.18;;
54883;SDS011;40776;52.880;6.016;2024-03-07T00:34:09;13.23;;;8.65;;
54883;SDS011;40776;52.880;6.016;2024-03-07T00:36:35;12.18;;;7.78;;
54883;SDS011;40776;52.880;6.016;2024-03-07T00:39:01;12.18;;;8.20;;
54883;SDS011;40776;52.880;6.016;2024-03-07T00:41:27;12.38;;;7.88;;
54883;SDS011;40776;52.880;6.016;2024-03-07T00:43:53;12.43;;;8.73;;
54883;SDS011;40776;52.880;6.016;2024-03-07T00:46:19;14.75;;;9.25;;
54883;SDS011;40776;52.880;6.016;2024-03-07T00:48:45;12.07;;;8.65;;
54883;SDS011;40776;52.880;6.016;2024-03-07T00:51:11;13.20;;;8.57;;
54883;SDS011;40776;52.880;6.016;2024-03-07T00:53:37;12.85;;;8.65;;
54883;SDS011;40776;52.880;6.016;2024-03-07T00:56:03;13.50;;;9.07;;
54883;SDS011;40776;52.880;6.016;2024-03-07T00:58:30;11.70;;;8.05;;
54883;SDS011;40776;52.880;6.016;2024-03-07T01:00:56;13.48;;;8.30;;
54883;SDS011;40776;52.880;6.016;2024-03-07T01:03:22;12.93;;;8.68;;
54883;SDS011;40776;52.880;6.016;2024-03-07T01:05:49;12.82;;;7.80;;
54883;SDS011;40776;52.880;6.016;2024-03-07T01:08:15;13.18;;;8.95;;
54883;SDS011;40776;52.880;6.016;2024-03-07T01:10:41;12.50;;;8.50;;
54883;SDS011;40776;52.880;6.016;2024-03-07T01:15:56;11.80;;;8.45;;
54883;SDS011;40776;52.880;6.016;2024-03-07T01:18:22;11.80;;;8.07;;
54883;SDS011;40776;52.880;6.016;2024-03-07T01:20:48;12.00;;;8.07;;
54883;SDS011;40776;52.880;6.016;2024-03-07T01:23:14;13.45;;;8.80;;
54883;SDS011;40776;52.880;6.016;2024-03-07T01:25:40;13.40;;;8.43;;
54883;SDS011;40776;52.880;6.016;2024-03-07T01:28:06;13.07;;;8.80;;
54883;SDS011;40776;52.880;6.016;2024-03-07T01:30:33;12.20;;;8.23;;
54883;SDS011;40776;52.880;6.016;2024-03-07T01:33:02;12.25;;;8.32;;
54883;SDS011;40776;52.880;6.016;2024-03-07T01:35:28;13.88;;;9.20;;
54883;SDS011;40776;52.880;6.016;2024-03-07T01:37:54;13.13;;;8.27;;
54883;SDS011;40776;52.880;6.016;2024-03-07T01:40:20;11.82;;;8.15;;
54883;SDS011;40776;52.880;6.016;2024-03-07T01:42:49;13.27;;;9.40;;
54883;SDS011;40776;52.880;6.016;2024-03-07T01:45:16;11.20;;;8.38;;
54883;SDS011;40776;52.880;6.016;2024-03-07T01:47:45;11.48;;;8.27;;
54883;SDS011;40776;52.880;6.016;2024-03-07T01:50:11;12.88;;;8.82;;
54883;SDS011;40776;52.880;6.016;2024-03-07T01:52:39;12.60;;;8.48;;
54883;SDS011;40776;52.880;6.016;2024-03-07T01:55:06;11.63;;;7.78;;
54883;SDS011;40776;52.880;6.016;2024-03-07T01:57:32;12.05;;;7.90;;
54883;SDS011;40776;52.880;6.016;2024-03-07T02:00:00;13.48;;;8.60;;
54883;SDS011;40776;52.880;6.016;2024-03-07T02:02:31;11.65;;;7.82;;
54883;SDS011;40776;52.880;6.016;2024-03-07T02:04:57;11.95;;;7.88;;
54883;SDS011;40776;52.880;6.016;2024-03-07T02:07:26;11.95;;;8.05;;
54883;SDS011;40776;52.880;6.016;2024-03-07T02:09:59;13.15;;;8.57;;
54883;SDS011;40776;52.880;6.016;2024-03-07T02:12:26;10.63;;;7.63;;
54883;SDS011;40776;52.880;6.016;2024-03-07T02:14:52;11.95;;;7.78;;
54883;SDS011;40776;52.880;6.016;2024-03-07T02:17:18;13.07;;;8.40;;
54883;SDS011;40776;52.880;6.016;2024-03-07T02:19:45;10.73;;;7.63;;
54883;SDS011;40776;52.880;6.016;2024-03-07T02:22:13;11.43;;;8.23;;
54883;SDS011;40776;52.880;6.016;2024-03-07T02:24:39;12.02;;;8.27;;
54883;SDS011;40776;52.880;6.016;2024-03-07T02:27:05;12.32;;;8.50;;
54883;SDS011;40776;52.880;6.016;2024-03-07T02:29:33;13.23;;;8.48;;
54883;SDS011;40776;52.880;6.016;2024-03-07T02:32:01;11.70;;;8.60;;
54883;SDS011;40776;52.880;6.016;2024-03-07T02:34:27;10.85;;;7.88;;
54883;SDS011;40776;52.880;6.016;2024-03-07T02:36:53;11.25;;;7.93;;
54883;SDS011;40776;52.880;6.016;2024-03-07T02:39:19;12.48;;;8.02;;
54883;SDS011;40776;52.880;6.016;2024-03-07T02:41:46;11.27;;;8.18;;
54883;SDS011;40776;52.880;6.016;2024-03-07T02:44:13;12.45;;;8.60;;
54883;SDS011;40776;52.880;6.016;2024-03-07T02:46:39;10.85;;;7.43;;
54883;SDS011;40776;52.880;6.016;2024-03-07T02:49:05;12.32;;;8.60;;
54883;SDS011;40776;52.880;6.016;2024-03-07T02:51:31;11.88;;;8.18;;
54883;SDS011;40776;52.880;6.016;2024-03-07T02:54:00;12.23;;;7.80;;
54883;SDS011;40776;52.880;6.016;2024-03-07T02:56:26;13.18;;;8.38;;
54883;SDS011;40776;52.880;6.016;2024-03-07T02:58:52;10.88;;;7.88;;
54883;SDS011;40776;52.880;6.016;2024-03-07T03:01:18;12.40;;;8.93;;
54883;SDS011;40776;52.880;6.016;2024-03-07T03:03:45;12.38;;;8.30;;
54883;SDS011;40776;52.880;6.016;2024-03-07T03:06:11;10.00;;;7.70;;
54883;SDS011;40776;52.880;6.016;2024-03-07T03:08:37;10.70;;;8.20;;
54883;SDS011;40776;52.880;6.016;2024-03-07T03:11:03;10.68;;;7.47;;
54883;SDS011;40776;52.880;6.016;2024-03-07T03:13:29;10.02;;;7.38;;
54883;SDS011;40776;52.880;6.016;2024-03-07T03:15:56;12.30;;;8.23;;
54883;SDS011;40776;52.880;6.016;2024-03-07T03:18:22;11.00;;;7.55;;
54883;SDS011;40776;52.880;6.016;2024-03-07T03:20:49;11.32;;;7.50;;
54883;SDS011;40776;52.880;6.016;2024-03-07T03:23:15;11.43;;;8.25;;
54883;SDS011;40776;52.880;6.016;2024-03-07T03:25:41;12.18;;;8.65;;
54883;SDS011;40776;52.880;6.016;2024-03-07T03:28:08;11.10;;;7.75;;
54883;SDS011;40776;52.880;6.016;2024-03-07T03:30:38;11.13;;;7.47;;
54883;SDS011;40776;52.880;6.016;2024-03-07T03:33:05;11.55;;;7.60;;
54883;SDS011;40776;52.880;6.016;2024-03-07T03:35:32;11.07;;;7.85;;
54883;SDS011;40776;52.880;6.016;2024-03-07T03:37:58;10.07;;;7.80;;
54883;SDS011;40776;52.880;6.016;2024-03-07T03:40:24;11.85;;;8.20;;
54883;SDS011;40776;52.880;6.016;2024-03-07T03:42:50;10.10;;;7.40;;
54883;SDS011;40776;52.880;6.016;2024-03-07T03:45:16;12.23;;;7.60;;
54883;SDS011;40776;52.880;6.016;2024-03-07T03:47:43;12.57;;;8.02;;
54883;SDS011;40776;52.880;6.016;2024-03-07T03:50:10;11.07;;;7.90;;
54883;SDS011;40776;52.880;6.016;2024-03-07T03:52:36;11.07;;;7.80;;
54883;SDS011;40776;52.880;6.016;2024-03-07T03:55:03;10.07;;;7.75;;
54883;SDS011;40776;52.880;6.016;2024-03-07T03:57:31;10.88;;;7.95;;
54883;SDS011;40776;52.880;6.016;2024-03-07T03:59:57;13.10;;;8.43;;
54883;SDS011;40776;52.880;6.016;2024-03-07T04:02:23;11.05;;;7.97;;
54883;SDS011;40776;52.880;6.016;2024-03-07T04:04:50;11.43;;;7.68;;
54883;SDS011;40776;52.880;6.016;2024-03-07T04:07:19;10.98;;;7.68;;
54883;SDS011;40776;52.880;6.016;2024-03-07T04:09:46;10.30;;;7.32;;
54883;SDS011;40776;52.880;6.016;2024-03-07T04:12:12;11.23;;;7.30;;
54883;SDS011;40776;52.880;6.016;2024-03-07T04:14:42;11.52;;;7.68;;
54883;SDS011;40776;52.880;6.016;2024-03-07T04:17:08;10.15;;;7.85;;
54883;SDS011;40776;52.880;6.016;2024-03-07T04:19:36;10.20;;;7.40;;
54883;SDS011;40776;52.880;6.016;2024-03-07T04:22:03;11.15;;;7.65;;
54883;SDS011;40776;52.880;6.016;2024-03-07T04:27:01;9.15;;;7.15;;
54883;SDS011;40776;52.880;6.016;2024-03-07T04:29:34;8.73;;;6.53;;
54883;SDS011;40776;52.880;6.016;2024-03-07T04:32:00;10.27;;;7.10;;
54883;SDS011;40776;52.880;6.016;2024-03-07T04:34:26;11.07;;;7.63;;
54883;SDS011;40776;52.880;6.016;2024-03-07T04:36:55;12.30;;;8.15;;
54883;SDS011;40776;52.880;6.016;2024-03-07T04:39:21;11.13;;;7.63;;
54883;SDS011;40776;52.880;6.016;2024-03-07T04:41:53;12.05;;;8.13;;
54883;SDS011;40776;52.880;6.016;2024-03-07T04:44:19;10.98;;;7.70;;
54883;SDS011;40776;52.880;6.016;2024-03-07T04:46:50;11.32;;;7.32;;
54883;SDS011;40776;52.880;6.016;2024-03-07T04:49:21;10.63;;;7.70;;
54883;SDS011;40776;52.880;6.016;2024-03-07T04:51:48;9.88;;;7.30;;
54883;SDS011;40776;52.880;6.016;2024-03-07T04:54:15;11.57;;;7.78;;
54883;SDS011;40776;52.880;6.016;2024-03-07T04:56:41;9.63;;;7.43;;
54883;SDS011;40776;52.880;6.016;2024-03-07T04:59:07;10.00;;;6.75;;
54883;SDS011;40776;52.880;6.016;2024-03-07T05:01:33;10.07;;;7.85;;
54883;SDS011;40776;52.880;6.016;2024-03-07T05:03:59;11.27;;;8.00;;
54883;SDS011;40776;52.880;6.016;2024-03-07T05:06:25;10.90;;;7.22;;
54883;SDS011;40776;52.880;6.016;2024-03-07T05:08:51;10.73;;;7.50;;
54883;SDS011;40776;52.880;6.016;2024-03-07T05:11:17;10.55;;;7.88;;
54883;SDS011;40776;52.880;6.016;2024-03-07T05:13:43;10.95;;;7.88;;
54883;SDS011;40776;52.880;6.016;2024-03-07T05:16:09;9.70;;;7.60;;
54883;SDS011;40776;52.880;6.016;2024-03-07T05:18:35;9.77;;;7.05;;
54883;SDS011;40776;52.880;6.016;2024-03-07T05:21:02;10.50;;;8.00;;
54883;SDS011;40776;52.880;6.016;2024-03-07T05:23:47;11.27;;;8.00;;
54883;SDS011;40776;52.880;6.016;2024-03-07T05:26:14;10.82;;;7.38;;
54883;SDS011;40776;52.880;6.016;2024-03-07T05:28:40;10.52;;;7.30;;
54883;SDS011;40776;52.880;6.016;2024-03-07T05:31:06;10.10;;;7.22;;
54883;SDS011;40776;52.880;6.016;2024-03-07T05:33:32;10.57;;;6.95;;
54883;SDS011;40776;52.880;6.016;2024-03-07T05:35:58;10.30;;;7.13;;
54883;SDS011;40776;52.880;6.016;2024-03-07T05:38:39;9.77;;;6.63;;
54883;SDS011;40776;52.880;6.016;2024-03-07T05:41:08;10.70;;;7.32;;
54883;SDS011;40776;52.880;6.016;2024-03-07T05:43:35;11.00;;;7.95;;
54883;SDS011;40776;52.880;6.016;2024-03-07T05:46:02;10.55;;;7.13;;
54883;SDS011;40776;52.880;6.016;2024-03-07T05:48:29;10.80;;;7.35;;
54883;SDS011;40776;52.880;6.016;2024-03-07T05:50:55;12.65;;;7.90;;
54883;SDS011;40776;52.880;6.016;2024-03-07T05:53:21;10.38;;;6.63;;
54883;SDS011;40776;52.880;6.016;2024-03-07T05:55:47;9.10;;;6.55;;
54883;SDS011;40776;52.880;6.016;2024-03-07T05:58:13;10.32;;;7.00;;
54883;SDS011;40776;52.880;6.016;2024-03-07T06:00:39;9.75;;;7.05;;
54883;SDS011;40776;52.880;6.016;2024-03-07T06:03:08;10.93;;;7.78;;
54883;SDS011;40776;52.880;6.016;2024-03-07T06:05:36;10.65;;;7.43;;
54883;SDS011;40776;52.880;6.016;2024-03-07T06:08:02;9.00;;;6.72;;
54883;SDS011;40776;52.880;6.016;2024-03-07T06:10:32;10.27;;;6.78;;
54883;SDS011;40776;52.880;6.016;2024-03-07T06:12:58;10.43;;;7.00;;
54883;SDS011;40776;52.880;6.016;2024-03-07T06:15:24;9.60;;;6.97;;
54883;SDS011;40776;52.880;6.016;2024-03-07T06:17:50;10.07;;;7.10;;
54883;SDS011;40776;52.880;6.016;2024-03-07T06:20:16;10.02;;;6.88;;
54883;SDS011;40776;52.880;6.016;2024-03-07T06:22:49;9.20;;;6.68;;
54883;SDS011;40776;52.880;6.016;2024-03-07T06:25:18;9.68;;;6.88;;
54883;SDS011;40776;52.880;6.016;2024-03-07T06:27:46;9.23;;;6.72;;
54883;SDS011;40776;52.880;6.016;2024-03-07T06:30:14;9.50;;;6.85;;
54883;SDS011;40776;52.880;6.016;2024-03-07T06:32:46;9.27;;;6.82;;
54883;SDS011;40776;52.880;6.016;2024-03-07T06:35:12;10.15;;;7.40;;
54883;SDS011;40776;52.880;6.016;2024-03-07T06:37:38;9.13;;;6.80;;
54883;SDS011;40776;52.880;6.016;2024-03-07T06:40:05;9.77;;;6.50;;
54883;SDS011;40776;52.880;6.016;2024-03-07T06:42:34;9.23;;;6.22;;
54883;SDS011;40776;52.880;6.016;2024-03-07T06:45:04;8.68;;;6.25;;
54883;SDS011;40776;52.880;6.016;2024-03-07T06:47:31;8.68;;;6.32;;
54883;SDS011;40776;52.880;6.016;2024-03-07T06:49:57;9.77;;;6.25;;
54883;SDS011;40776;52.880;6.016;2024-03-07T06:52:23;9.90;;;6.63;;
54883;SDS011;40776;52.880;6.016;2024-03-07T06:54:49;10.57;;;7.05;;
54883;SDS011;40776;52.880;6.016;2024-03-07T06:57:16;8.32;;;6.47;;
54883;SDS011;40776;52.880;6.016;2024-03-07T06:59:43;9.00;;;6.22;;
54883;SDS011;40776;52.880;6.016;2024-03-07T07:02:09;8.18;;;6.10;;
54883;SDS011;40776;52.880;6.016;2024-03-07T07:04:35;10.15;;;7.03;;
54883;SDS011;40776;52.880;6.016;2024-03-07T07:07:10;9.82;;;6.25;;
54883;SDS011;40776;52.880;6.016;2024-03-07T07:09:39;9.07;;;6.35;;
54883;SDS011;40776;52.880;6.016;2024-03-07T07:12:05;10.00;;;7.07;;
54883;SDS011;40776;52.880;6.016;2024-03-07T07:14:31;9.23;;;6.78;;
54883;SDS011;40776;52.880;6.016;2024-03-07T07:16:57;9.27;;;6.35;;
54883;SDS011;40776;52.880;6.016;2024-03-07T07:19:25;9.05;;;6.38;;
54883;SDS011;40776;52.880;6.016;2024-03-07T07:21:51;11.00;;;6.32;;
54883;SDS011;40776;52.880;6.016;2024-03-07T07:24:22;9.27;;;6.32;;
54883;SDS011;40776;52.880;6.016;2024-03-07T07:26:50;9.95;;;6.40;;
54883;SDS011;40776;52.880;6.016;2024-03-07T07:29:16;10.05;;;6.70;;
54883;SDS011;40776;52.880;6.016;2024-03-07T07:31:43;8.55;;;6.35;;
54883;SDS011;40776;52.880;6.016;2024-03-07T07:34:10;9.52;;;6.30;;
54883;SDS011;40776;52.880;6.016;2024-03-07T07:36:36;9.13;;;6.55;;
54883;SDS011;40776;52.880;6.016;2024-03-07T07:39:02;8.05;;;6.00;;
54883;SDS011;40776;52.880;6.016;2024-03-07T07:41:28;8.13;;;6.20;;
54883;SDS011;40776;52.880;6.016;2024-03-07T07:43:56;9.00;;;6.63;;
54883;SDS011;40776;52.880;6.016;2024-03-07T07:46:22;9.98;;;6.88;;
54883;SDS011;40776;52.880;6.016;2024-03-07T07:48:51;8.73;;;6.57;;
54883;SDS011;40776;52.880;6.016;2024-03-07T07:51:17;8.13;;;6.05;;
54883;SDS011;40776;52.880;6.016;2024-03-07T07:53:43;8.77;;;6.07;;
54883;SDS011;40776;52.880;6.016;2024-03-07T07:56:09;8.55;;;6.13;;
54883;SDS011;40776;52.880;6.016;2024-03-07T07:58:35;7.75;;;5.93;;
54883;SDS011;40776;52.880;6.016;2024-03-07T08:01:01;9.48;;;6.45;;
54883;SDS011;40776;52.880;6.016;2024-03-07T08:03:28;8.25;;;6.00;;
54883;SDS011;40776;52.880;6.016;2024-03-07T08:05:55;8.75;;;6.00;;
54883;SDS011;40776;52.880;6.016;2024-03-07T08:08:21;9.02;;;6.43;;
54883;SDS011;40776;52.880;6.016;2024-03-07T08:10:47;10.05;;;6.05;;
54883;SDS011;40776;52.880;6.016;2024-03-07T08:13:13;9.52;;;6.47;;
54883;SDS011;40776;52.880;6.016;2024-03-07T08:15:39;9.27;;;6.32;;
54883;SDS011;40776;52.880;6.016;2024-03-07T08:18:06;8.05;;;5.80;;
54883;SDS011;40776;52.880;6.016;2024-03-07T08:20:33;8.70;;;6.18;;
54883;SDS011;40776;52.880;6.016;2024-03-07T08:23:00;8.43;;;6.15;;
54883;SDS011;40776;52.880;6.016;2024-03-07T08:25:27;9.80;;;6.97;;
54883;SDS011;40776;52.880;6.016;2024-03-07T08:27:54;10.48;;;6.55;;
54883;SDS011;40776;52.880;6.016;2024-03-07T08:30:21;8.40;;;6.28;;
54883;SDS011;40776;52.880;6.016;2024-03-07T08:32:51;9.35;;;6.18;;
54883;SDS011;40776;52.880;6.016;2024-03-07T08:35:17;8.40;;;6.03;;
54883;SDS011;40776;52.880;6.016;2024-03-07T08:37:44;8.20;;;6.20;;
54883;SDS011;40776;52.880;6.016;2024-03-07T08:40:10;8.27;;;6.20;;
54883;SDS011;40776;52.880;6.016;2024-03-07T08:42:44;8.10;;;6.40;;
54883;SDS011;40776;52.880;6.016;2024-03-07T08:45:10;8.70;;;6.28;;
54883;SDS011;40776;52.880;6.016;2024-03-07T08:47:37;8.20;;;5.90;;
54883;SDS011;40776;52.880;6.016;2024-03-07T08:50:04;9.30;;;6.55;;
54883;SDS011;40776;52.880;6.016;2024-03-07T08:52:33;8.67;;;6.17;;
54883;SDS011;40776;52.880;6.016;2024-03-07T08:55:02;8.43;;;6.03;;
54883;SDS011;40776;52.880;6.016;2024-03-07T08:57:28;10.48;;;6.60;;
54883;SDS011;40776;52.880;6.016;2024-03-07T08:59:55;9.93;;;6.57;;
54883;SDS011;40776;52.880;6.016;2024-03-07T09:02:21;9.20;;;6.53;;
54883;SDS011;40776;52.880;6.016;2024-03-07T09:04:47;8.80;;;6.20;;
54883;SDS011;40776;52.880;6.016;2024-03-07T09:07:13;9.02;;;6.07;;
54883;SDS011;40776;52.880;6.016;2024-03-07T09:09:40;8.15;;;6.28;;
54883;SDS011;40776;52.880;6.016;2024-03-07T09:12:10;9.35;;;6.38;;
54883;SDS011;40776;52.880;6.016;2024-03-07T09:14:36;8.15;;;5.78;;
54883;SDS011;40776;52.880;6.016;2024-03-07T09:17:03;8.57;;;6.15;;
54883;SDS011;40776;52.880;6.016;2024-03-07T09:19:32;9.50;;;6.65;;
54883;SDS011;40776;52.880;6.016;2024-03-07T09:21:58;9.60;;;6.53;;
54883;SDS011;40776;52.880;6.016;2024-03-07T09:24:25;12.73;;;6.82;;
54883;SDS011;40776;52.880;6.016;2024-03-07T09:26:51;9.38;;;6.60;;
54883;SDS011;40776;52.880;6.016;2024-03-07T09:29:21;7.82;;;6.10;;
54883;SDS011;40776;52.880;6.016;2024-03-07T09:31:51;8.77;;;6.50;;
54883;SDS011;40776;52.880;6.016;2024-03-07T09:34:20;9.20;;;6.88;;
54883;SDS011;40776;52.880;6.016;2024-03-07T09:36:50;9.90;;;6.82;;
54883;SDS011;40776;52.880;6.016;2024-03-07T09:39:16;9.73;;;6.60;;
54883;SDS011;40776;52.880;6.016;2024-03-07T09:41:42;9.98;;;7.00;;
54883;SDS011;40776;52.880;6.016;2024-03-07T09:44:08;10.07;;;6.90;;
54883;SDS011;40776;52.880;6.016;2024-03-07T09:46:38;9.25;;;6.70;;
54883;SDS011;40776;52.880;6.016;2024-03-07T09:49:04;10.40;;;6.78;;
54883;SDS011;40776;52.880;6.016;2024-03-07T09:51:31;9.63;;;7.07;;
54883;SDS011;40776;52.880;6.016;2024-03-07T09:53:57;9.82;;;6.90;;
54883;SDS011;40776;52.880;6.016;2024-03-07T09:56:24;12.07;;;8.10;;
54883;SDS011;40776;52.880;6.016;2024-03-07T09:58:51;10.68;;;7.45;;
54883;SDS011;40776;52.880;6.016;2024-03-07T10:01:18;11.52;;;7.95;;
54883;SDS011;40776;52.880;6.016;2024-03-07T10:03:45;12.20;;;8.10;;
54883;SDS011;40776;52.880;6.016;2024-03-07T10:06:12;12.00;;;8.23;;
54883;SDS011;40776;52.880;6.016;2024-03-07T10:08:40;11.05;;;7.45;;
54883;SDS011;40776;52.880;6.016;2024-03-07T10:11:07;11.05;;;7.50;;
54883;SDS011;40776;52.880;6.016;2024-03-07T10:13:34;10.90;;;7.72;;
54883;SDS011;40776;52.880;6.016;2024-03-07T10:16:00;13.05;;;8.07;;
54883;SDS011;40776;52.880;6.016;2024-03-07T10:18:27;11.00;;;7.25;;
54883;SDS011;40776;52.880;6.016;2024-03-07T10:20:54;10.55;;;7.82;;
54883;SDS011;40776;52.880;6.016;2024-03-07T10:23:20;12.02;;;7.05;;
54883;SDS011;40776;52.880;6.016;2024-03-07T10:25:47;11.60;;;8.00;;
54883;SDS011;40776;52.880;6.016;2024-03-07T10:28:13;12.20;;;8.00;;
54883;SDS011;40776;52.880;6.016;2024-03-07T10:30:42;12.18;;;7.95;;
54883;SDS011;40776;52.880;6.016;2024-03-07T10:33:16;12.45;;;8.15;;
54883;SDS011;40776;52.880;6.016;2024-03-07T10:35:46;13.73;;;8.88;;
54883;SDS011;40776;52.880;6.016;2024-03-07T10:38:14;12.38;;;8.93;;
54883;SDS011;40776;52.880;6.016;2024-03-07T10:40:40;12.75;;;8.82;;
54883;SDS011;40776;52.880;6.016;2024-03-07T10:43:10;12.55;;;8.57;;
54883;SDS011;40776;52.880;6.016;2024-03-07T10:45:46;11.45;;;7.65;;
54883;SDS011;40776;52.880;6.016;2024-03-07T10:48:12;13.20;;;7.90;;
54883;SDS011;40776;52.880;6.016;2024-03-07T10:56:12;12.52;;;8.48;;
54883;SDS011;40776;52.880;6.016;2024-03-07T11:01:30;13.25;;;8.55;;
54883;SDS011;40776;52.880;6.016;2024-03-07T11:03:59;12.15;;;8.27;;
54883;SDS011;40776;52.880;6.016;2024-03-07T11:06:29;11.65;;;7.78;;
54883;SDS011;40776;52.880;6.016;2024-03-07T11:08:55;12.90;;;8.05;;
54883;SDS011;40776;52.880;6.016;2024-03-07T11:11:25;13.88;;;9.02;;
54883;SDS011;40776;52.880;6.016;2024-03-07T11:13:53;11.30;;;8.02;;
54883;SDS011;40776;52.880;6.016;2024-03-07T11:16:20;13.90;;;8.50;;
54883;SDS011;40776;52.880;6.016;2024-03-07T11:21:52;13.60;;;8.40;;
54883;SDS011;40776;52.880;6.016;2024-03-07T11:24:29;12.73;;;8.38;;
54883;SDS011;40776;52.880;6.016;2024-03-07T11:27:02;12.98;;;8.50;;
54883;SDS011;40776;52.880;6.016;2024-03-07T11:32:14;11.02;;;7.63;;
54883;SDS011;40776;52.880;6.016;2024-03-07T11:34:42;12.93;;;8.67;;
54883;SDS011;40776;52.880;6.016;2024-03-07T11:37:11;11.80;;;7.87;;
54883;SDS011;40776;52.880;6.016;2024-03-07T11:39:46;11.80;;;8.07;;
54883;SDS011;40776;52.880;6.016;2024-03-07T11:42:28;12.07;;;7.85;;
54883;SDS011;40776;52.880;6.016;2024-03-07T11:44:56;12.65;;;8.05;;
54883;SDS011;40776;52.880;6.016;2024-03-07T11:47:23;11.63;;;7.60;;
54883;SDS011;40776;52.880;6.016;2024-03-07T11:49:52;12.13;;;7.88;;
54883;SDS011;40776;52.880;6.016;2024-03-07T11:52:18;10.68;;;7.40;;
54883;SDS011;40776;52.880;6.016;2024-03-07T11:54:45;12.13;;;7.85;;
54883;SDS011;40776;52.880;6.016;2024-03-07T11:57:12;13.57;;;8.27;;
54883;SDS011;40776;52.880;6.016;2024-03-07T11:59:42;12.15;;;7.53;;
54883;SDS011;40776;52.880;6.016;2024-03-07T12:02:14;10.93;;;7.25;;
54883;SDS011;40776;52.880;6.016;2024-03-07T12:04:44;11.07;;;7.47;;
54883;SDS011;40776;52.880;6.016;2024-03-07T12:07:11;12.15;;;8.18;;
54883;SDS011;40776;52.880;6.016;2024-03-07T12:09:37;11.48;;;7.38;;
54883;SDS011;40776;52.880;6.016;2024-03-07T12:12:07;12.32;;;7.85;;
54883;SDS011;40776;52.880;6.016;2024-03-07T12:14:34;10.65;;;7.25;;
54883;SDS011;40776;52.880;6.016;2024-03-07T12:17:03;12.25;;;7.63;;
54883;SDS011;40776;52.880;6.016;2024-03-07T12:19:34;12.15;;;7.90;;
54883;SDS011;40776;52.880;6.016;2024-03-07T12:22:00;12.07;;;7.57;;
54883;SDS011;40776;52.880;6.016;2024-03-07T12:24:27;12.32;;;7.68;;
54883;SDS011;40776;52.880;6.016;2024-03-07T12:27:03;11.45;;;7.50;;
54883;SDS011;40776;52.880;6.016;2024-03-07T12:29:30;11.18;;;7.40;;
54883;SDS011;40776;52.880;6.016;2024-03-07T12:31:56;11.27;;;7.45;;
54883;SDS011;40776;52.880;6.016;2024-03-07T12:34:22;11.65;;;7.68;;
54883;SDS011;40776;52.880;6.016;2024-03-07T12:36:51;11.20;;;7.32;;
54883;SDS011;40776;52.880;6.016;2024-03-07T12:39:27;12.85;;;9.02;;
54883;SDS011;40776;52.880;6.016;2024-03-07T12:41:58;11.15;;;7.68;;
54883;SDS011;40776;52.880;6.016;2024-03-07T12:44:24;10.77;;;7.20;;
54883;SDS011;40776;52.880;6.016;2024-03-07T12:46:54;12.85;;;8.13;;
54883;SDS011;40776;52.880;6.016;2024-03-07T12:49:24;12.68;;;7.72;;
54883;SDS011;40776;52.880;6.016;2024-03-07T12:51:53;10.52;;;7.57;;
54883;SDS011;40776;52.880;6.016;2024-03-07T12:54:20;10.63;;;6.65;;
54883;SDS011;40776;52.880;6.016;2024-03-07T12:56:49;11.95;;;7.10;;
54883;SDS011;40776;52.880;6.016;2024-03-07T12:59:16;10.70;;;7.00;;
54883;SDS011;40776;52.880;6.016;2024-03-07T13:01:42;12.07;;;7.65;;
54883;SDS011;40776;52.880;6.016;2024-03-07T13:04:12;11.70;;;7.57;;
54883;SDS011;40776;52.880;6.016;2024-03-07T13:06:39;11.10;;;7.10;;
54883;SDS011;40776;52.880;6.016;2024-03-07T13:09:09;13.48;;;8.02;;
54883;SDS011;40776;52.880;6.016;2024-03-07T13:11:38;12.77;;;7.70;;
54883;SDS011;40776;52.880;6.016;2024-03-07T13:14:12;10.18;;;7.05;;
54883;SDS011;40776;52.880;6.016;2024-03-07T13:16:39;12.48;;;6.95;;
54883;SDS011;40776;52.880;6.016;2024-03-07T13:19:08;12.15;;;7.88;;
54883;SDS011;40776;52.880;6.016;2024-03-07T13:21:37;12.02;;;7.47;;
54883;SDS011;40776;52.880;6.016;2024-03-07T13:24:03;12.40;;;8.15;;
54883;SDS011;40776;52.880;6.016;2024-03-07T13:26:30;12.00;;;7.57;;
54883;SDS011;40776;52.880;6.016;2024-03-07T13:28:57;11.27;;;7.35;;
54883;SDS011;40776;52.880;6.016;2024-03-07T13:31:27;11.27;;;7.07;;
54883;SDS011;40776;52.880;6.016;2024-03-07T13:33:53;10.35;;;7.25;;
54883;SDS011;40776;52.880;6.016;2024-03-07T13:36:20;11.52;;;7.20;;
54883;SDS011;40776;52.880;6.016;2024-03-07T13:38:50;11.63;;;7.50;;
54883;SDS011;40776;52.880;6.016;2024-03-07T13:41:18;10.90;;;7.38;;
54883;SDS011;40776;52.880;6.016;2024-03-07T13:43:44;12.32;;;7.47;;
54883;SDS011;40776;52.880;6.016;2024-03-07T13:46:10;11.65;;;7.15;;
54883;SDS011;40776;52.880;6.016;2024-03-07T13:48:40;11.80;;;7.78;;
54883;SDS011;40776;52.880;6.016;2024-03-07T13:51:08;11.75;;;6.88;;
54883;SDS011;40776;52.880;6.016;2024-03-07T13:53:34;10.45;;;6.93;;
54883;SDS011;40776;52.880;6.016;2024-03-07T13:58:54;10.75;;;7.28;;
54883;SDS011;40776;52.880;6.016;2024-03-07T14:01:37;11.32;;;6.78;;
54883;SDS011;40776;52.880;6.016;2024-03-07T14:10:00;11.13;;;6.95;;
54883;SDS011;40776;52.880;6.016;2024-03-07T14:20:50;10.40;;;6.80;;
54883;SDS011;40776;52.880;6.016;2024-03-07T14:31:06;12.90;;;7.35;;
54883;SDS011;40776;52.880;6.016;2024-03-07T14:36:14;10.40;;;6.90;;
54883;SDS011;40776;52.880;6.016;2024-03-07T14:41:12;10.00;;;6.28;;
54883;SDS011;40776;52.880;6.016;2024-03-07T14:43:40;12.60;;;6.75;;
54883;SDS011;40776;52.880;6.016;2024-03-07T14:46:06;10.52;;;6.85;;
54883;SDS011;40776;52.880;6.016;2024-03-07T14:48:34;9.43;;;6.38;;
54883;SDS011;40776;52.880;6.016;2024-03-07T14:51:00;11.43;;;6.95;;
54883;SDS011;40776;52.880;6.016;2024-03-07T14:53:28;13.52;;;7.10;;
54883;SDS011;40776;52.880;6.016;2024-03-07T14:55:54;15.95;;;8.50;;
54883;SDS011;40776;52.880;6.016;2024-03-07T14:58:21;15.45;;;7.65;;
54883;SDS011;40776;52.880;6.016;2024-03-07T15:00:48;20.27;;;9.55;;
54883;SDS011;40776;52.880;6.016;2024-03-07T15:03:15;19.35;;;8.70;;
54883;SDS011;40776;52.880;6.016;2024-03-07T15:05:44;34.28;;;10.25;;
54883;SDS011;40776;52.880;6.016;2024-03-07T15:08:14;21.42;;;9.43;;
54883;SDS011;40776;52.880;6.016;2024-03-07T15:10:41;17.48;;;8.32;;
54883;SDS011;40776;52.880;6.016;2024-03-07T15:13:11;22.65;;;10.02;;
54883;SDS011;40776;52.880;6.016;2024-03-07T15:15:38;23.67;;;9.35;;
54883;SDS011;40776;52.880;6.016;2024-03-07T15:18:05;18.50;;;9.07;;
54883;SDS011;40776;52.880;6.016;2024-03-07T15:20:34;21.00;;;9.02;;
54883;SDS011;40776;52.880;6.016;2024-03-07T15:23:01;17.77;;;9.38;;
54883;SDS011;40776;52.880;6.016;2024-03-07T15:28:05;16.67;;;9.02;;
54883;SDS011;40776;52.880;6.016;2024-03-07T15:30:31;18.83;;;9.90;;
54883;SDS011;40776;52.880;6.016;2024-03-07T15:32:59;20.73;;;9.30;;